Time;durP1;ratioP1;P1;durP2;ratioP2;P2;SDS_P1;SDS_P2;PMS_P1;PMS_P2;Temp;Humidity;BMP_temperature;BMP_pressure;BME280_temperature;BME280_humidity;BME280_pressure;Samples;Min_cycle;Max_cycle;Signal;HPM_P1;HPM_P2
2023/01/05 00:02:21;;;;;;;10.40;1.90;;;20.70;99.90;;;;;;5054395;28;20658;-86
2023/01/05 00:04:52;;;;;;;9.82;1.77;;;20.80;99.90;;;;;;5053952;28;20207;-86
2023/01/05 00:07:23;;;;;;;10.27;2.17;;;20.80;99.90;;;;;;5054987;28;20642;-86
2023/01/05 00:09:54;;;;;;;6.63;1.63;;;20.80;99.90;;;;;;5052864;28;20248;-86
2023/01/05 00:23:34;;;;;;;11.23;1.67;;;21.20;99.90;;;;;;5064779;28;20203;-87
2023/01/05 00:26:05;;;;;;;9.90;1.90;;;21.30;99.90;;;;;;5057092;28;20204;-86
2023/01/05 00:28:37;;;;;;;12.35;2.53;;;21.30;99.90;;;;;;5054463;28;20287;-87
2023/01/05 00:31:08;;;;;;;12.20;2.28;;;21.30;99.90;;;;;;5057819;28;20307;-87
2023/01/05 00:33:41;;;;;;;11.27;2.33;;;21.30;99.90;;;;;;5053544;28;20723;-87
2023/01/05 00:36:12;;;;;;;12.32;2.10;;;21.30;99.90;;;;;;5053418;28;20292;-87
2023/01/05 00:38:44;;;;;;;11.88;2.25;;;21.30;99.90;;;;;;5052819;28;20185;-86
2023/01/05 00:41:15;;;;;;;10.82;2.20;;;21.30;99.90;;;;;;5052917;28;20283;-88
2023/01/05 00:43:47;;;;;;;12.27;2.70;;;21.30;99.90;;;;;;5051148;28;20288;-88
2023/01/05 00:46:17;;;;;;;13.68;2.22;;;21.40;99.90;;;;;;5050601;28;20251;-88
2023/01/05 00:48:51;;;;;;;7.78;1.70;;;21.40;99.90;;;;;;5055066;28;20201;-88
2023/01/05 00:51:24;;;;;;;8.98;2.13;;;21.50;99.90;;;;;;5070974;28;20275;-87
2023/01/05 00:53:55;;;;;;;9.00;2.00;;;21.70;99.90;;;;;;5052825;28;20203;-88
2023/01/05 00:56:26;;;;;;;10.73;2.22;;;21.70;99.90;;;;;;5051455;28;20201;-88
2023/01/05 00:58:57;;;;;;;8.90;1.90;;;21.70;99.90;;;;;;5047586;28;20242;-88
2023/01/05 01:01:28;;;;;;;10.25;1.70;;;21.60;99.90;;;;;;5054409;28;20204;-88
2023/01/05 01:04:02;;;;;;;9.20;1.90;;;21.70;99.90;;;;;;5071201;28;20243;-87
2023/01/05 01:06:34;;;;;;;13.00;2.13;;;21.70;99.90;;;;;;5052613;28;20278;-89
2023/01/05 01:09:05;;;;;;;8.13;1.95;;;21.70;99.90;;;;;;5051923;28;20232;-89
2023/01/05 01:11:36;;;;;;;8.23;2.10;;;21.70;99.90;;;;;;5053786;28;20259;-87
2023/01/05 01:14:07;;;;;;;11.52;2.30;;;21.70;99.90;;;;;;5052007;28;20193;-87
2023/01/05 01:16:37;;;;;;;11.50;2.42;;;21.60;99.90;;;;;;5052020;28;20287;-88
2023/01/05 01:19:15;;;;;;;8.75;2.05;;;21.50;99.90;;;;;;5056681;28;20311;-87
2023/01/05 01:21:46;;;;;;;9.30;1.90;;;21.50;99.90;;;;;;5059504;28;20203;-87
2023/01/05 01:24:19;;;;;;;13.27;2.33;;;21.50;99.90;;;;;;5052709;28;20626;-87
2023/01/05 01:26:50;;;;;;;15.07;2.70;;;21.60;99.90;;;;;;5050943;28;20211;-88
2023/01/05 01:29:21;;;;;;;10.80;2.13;;;21.70;99.90;;;;;;5050513;28;20295;-87
2023/01/05 01:31:52;;;;;;;11.18;2.40;;;21.70;99.90;;;;;;5051333;28;20777;-87
2023/01/05 01:34:25;;;;;;;8.43;2.10;;;21.80;99.90;;;;;;5052111;28;20219;-88
2023/01/05 01:36:59;;;;;;;10.23;1.90;;;21.70;99.90;;;;;;5053092;28;20196;-89
2023/01/05 01:39:30;;;;;;;9.32;2.22;;;21.80;99.90;;;;;;5051961;28;20208;-89
2023/01/05 01:42:01;;;;;;;8.15;2.28;;;21.90;99.90;;;;;;5051692;28;20204;-86
2023/01/05 01:44:51;;;;;;;13.80;2.15;;;21.90;99.90;;;;;;5053654;28;20201;-88
2023/01/05 01:47:27;;;;;;;11.38;2.20;;;21.80;99.90;;;;;;5054151;28;20288;-87
2023/01/05 01:50:02;;;;;;;8.68;2.10;;;21.80;99.90;;;;;;5045471;28;20196;-88
2023/01/05 01:52:34;;;;;;;10.98;2.05;;;21.90;99.90;;;;;;5062668;28;20254;-88
2023/01/05 01:55:08;;;;;;;7.70;2.08;;;21.90;99.90;;;;;;5070060;28;20228;-88
2023/01/05 01:57:41;;;;;;;15.10;2.50;;;22.00;99.90;;;;;;5037302;28;20204;-87
2023/01/05 02:00:15;;;;;;;13.77;2.60;;;22.00;99.90;;;;;;5055487;28;20287;-87
2023/01/05 02:02:46;;;;;;;14.90;2.38;;;22.10;99.90;;;;;;5056379;28;20201;-87
2023/01/05 02:05:22;;;;;;;11.50;2.28;;;22.10;99.90;;;;;;5056162;28;20204;-88
2023/01/05 02:07:54;;;;;;;7.07;1.80;;;22.10;99.90;;;;;;5054918;28;20626;-89
2023/01/05 02:10:36;;;;;;;9.65;1.70;;;22.20;99.90;;;;;;5053547;28;20267;-89
2023/01/05 02:13:25;;;;;;;12.95;2.38;;;22.30;99.90;;;;;;5054857;28;20221;-89
2023/01/05 02:16:04;;;;;;;9.43;2.00;;;22.40;99.90;;;;;;5053851;28;20196;-88
2023/01/05 02:18:52;;;;;;;14.30;1.92;;;22.60;99.90;;;;;;5053207;28;20228;-89
2023/01/05 02:21:38;;;;;;;9.63;2.53;;;22.40;99.90;;;;;;5054003;28;20686;-88
2023/01/05 02:24:40;;;;;;;11.27;2.38;;;22.40;99.90;;;;;;5055037;28;20276;-88
2023/01/05 02:27:31;;;;;;;10.02;2.03;;;22.70;99.90;;;;;;5052650;28;20245;-87
2023/01/05 02:30:34;;;;;;;8.43;2.22;;;22.80;99.90;;;;;;5055770;28;20280;-87
2023/01/05 02:33:17;;;;;;;10.45;2.30;;;23.00;99.90;;;;;;5042553;28;20227;-87
2023/01/05 02:35:57;;;;;;;13.10;2.60;;;23.10;99.90;;;;;;5070932;28;20196;-88
2023/01/05 02:38:37;;;;;;;9.32;2.15;;;23.00;99.90;;;;;;5052072;28;20188;-87
2023/01/05 02:41:16;;;;;;;9.82;2.63;;;23.00;99.90;;;;;;5052263;28;20254;-87
2023/01/05 02:43:47;;;;;;;11.13;2.42;;;22.90;99.90;;;;;;5056892;28;20279;-87
2023/01/05 02:46:19;;;;;;;9.07;1.90;;;22.80;99.90;;;;;;5047182;28;20196;-86
2023/01/05 02:49:00;;;;;;;12.10;2.30;;;22.80;99.90;;;;;;5049704;28;20251;-87
2023/01/05 02:51:34;;;;;;;14.82;2.40;;;22.70;99.90;;;;;;5051048;28;20304;-86
2023/01/05 02:54:10;;;;;;;11.98;2.33;;;22.70;99.90;;;;;;5058694;28;20235;-87
2023/01/05 02:56:45;;;;;;;12.00;2.30;;;22.80;99.90;;;;;;5062805;28;20197;-87
2023/01/05 02:59:21;;;;;;;11.77;2.20;;;22.80;99.90;;;;;;5051503;28;20569;-86
2023/01/05 03:01:58;;;;;;;13.43;2.42;;;22.90;99.90;;;;;;5050429;28;20204;-87
2023/01/05 03:04:35;;;;;;;13.75;2.35;;;22.80;99.90;;;;;;5050886;28;20655;-87
2023/01/05 03:07:11;;;;;;;12.13;2.60;;;22.80;99.90;;;;;;5049098;28;20287;-87
2023/01/05 03:09:43;;;;;;;12.52;2.72;;;22.50;99.90;;;;;;5054647;28;20222;-87
2023/01/05 03:15:17;;;;;;;10.88;2.38;;;22.60;99.90;;;;;;5055164;28;20269;-87
2023/01/05 03:17:52;;;;;;;10.52;2.50;;;22.40;99.90;;;;;;5045258;28;20479;-88
2023/01/05 03:20:28;;;;;;;12.05;2.42;;;22.40;99.90;;;;;;5039087;28;20227;-87
2023/01/05 03:37:23;;;;;;;8.48;1.77;;;23.20;99.90;;;;;;5039071;28;20200;-87
2023/01/05 03:39:54;;;;;;;10.57;2.10;;;23.20;99.90;;;;;;5055582;28;20196;-86
2023/01/05 03:42:26;;;;;;;9.07;2.05;;;23.30;99.90;;;;;;5055006;28;20544;-86
2023/01/05 03:44:57;;;;;;;10.75;2.60;;;23.40;99.90;;;;;;5056483;28;20197;-87
2023/01/05 03:47:27;;;;;;;9.38;2.05;;;23.20;99.90;;;;;;5056315;28;20283;-87
2023/01/05 03:49:58;;;;;;;11.00;2.40;;;23.00;99.90;;;;;;5052501;28;20217;-87
2023/01/05 03:52:31;;;;;;;10.00;2.13;;;23.10;99.90;;;;;;5054039;28;20232;-87
2023/01/05 03:55:02;;;;;;;11.80;2.30;;;23.10;99.90;;;;;;5050104;28;20189;-86
2023/01/05 03:57:33;;;;;;;8.68;2.10;;;23.20;99.90;;;;;;5064352;28;20790;-87
2023/01/05 04:00:05;;;;;;;9.50;1.88;;;23.30;99.90;;;;;;5053704;28;20196;-85
2023/01/05 04:02:36;;;;;;;11.43;2.30;;;23.20;99.90;;;;;;5042520;28;20280;-85
2023/01/05 04:05:07;;;;;;;11.77;2.15;;;23.30;99.90;;;;;;5042417;28;20280;-86
2023/01/05 04:07:39;;;;;;;11.75;2.20;;;23.40;99.90;;;;;;5053410;28;20201;-87
2023/01/05 04:10:12;;;;;;;9.90;2.10;;;23.30;99.90;;;;;;5053353;28;20216;-87
2023/01/05 04:12:45;;;;;;;9.63;2.13;;;23.50;99.90;;;;;;5053275;28;20312;-87
2023/01/05 04:15:16;;;;;;;13.80;2.60;;;23.50;99.90;;;;;;5051740;28;20266;-87
2023/01/05 04:17:49;;;;;;;11.10;2.45;;;23.60;99.90;;;;;;5054496;28;20283;-87
2023/01/05 04:20:20;;;;;;;12.68;2.25;;;23.60;99.90;;;;;;5049800;28;20206;-88
2023/01/05 04:22:52;;;;;;;11.05;1.88;;;23.70;99.90;;;;;;5053175;28;20189;-87
2023/01/05 04:25:30;;;;;;;13.70;2.40;;;23.90;99.90;;;;;;5055176;28;20240;-86
2023/01/05 04:28:01;;;;;;;7.50;2.00;;;24.20;99.90;;;;;;5052031;28;20320;-88
2023/01/05 04:30:32;;;;;;;8.30;2.13;;;24.40;99.90;;;;;;5052013;28;20623;-87
2023/01/05 04:33:05;;;;;;;13.18;2.72;;;24.20;99.90;;;;;;5052901;28;20307;-88
2023/01/05 04:35:35;;;;;;;14.75;2.58;;;24.20;99.90;;;;;;5058382;28;20633;-89
2023/01/05 04:38:11;;;;;;;11.70;2.05;;;23.90;99.90;;;;;;5076462;28;20236;-89
2023/01/05 04:40:41;;;;;;;11.95;2.45;;;23.70;99.90;;;;;;5054252;28;20192;-87
2023/01/05 04:43:12;;;;;;;11.43;2.30;;;23.50;99.90;;;;;;5070595;28;20248;-86
2023/01/05 04:45:43;;;;;;;10.52;2.25;;;23.20;99.90;;;;;;5063118;28;20218;-87
2023/01/05 04:48:14;;;;;;;12.32;2.67;;;22.80;99.90;;;;;;5055522;28;20292;-87
2023/01/05 04:50:45;;;;;;;8.75;1.98;;;22.60;99.90;;;;;;5048964;28;20721;-86
2023/01/05 04:53:18;;;;;;;15.43;2.40;;;22.40;99.90;;;;;;5048988;28;20280;-88
2023/01/05 04:55:50;;;;;;;13.25;2.30;;;22.30;99.90;;;;;;5070185;28;20203;-87
2023/01/05 04:58:21;;;;;;;11.48;2.13;;;22.10;99.90;;;;;;5054231;28;20258;-88
2023/01/05 05:00:52;;;;;;;13.10;2.47;;;22.00;99.90;;;;;;5055434;28;20212;-87
2023/01/05 05:03:25;;;;;;;11.55;2.38;;;21.80;99.90;;;;;;5054779;28;20197;-87
2023/01/05 05:05:56;;;;;;;11.95;2.30;;;21.70;99.90;;;;;;5053540;28;20284;-87
2023/01/05 05:08:29;;;;;;;14.88;2.10;;;21.70;99.90;;;;;;5053264;28;20196;-87
2023/01/05 05:11:03;;;;;;;11.43;2.33;;;21.70;99.90;;;;;;5047541;28;20223;-88
2023/01/05 05:13:35;;;;;;;10.52;2.40;;;21.70;99.90;;;;;;5037350;28;20227;-88
2023/01/05 05:16:10;;;;;;;10.50;1.90;;;21.70;99.90;;;;;;5034729;28;20675;-88
2023/01/05 05:18:46;;;;;;;7.80;1.70;;;21.80;99.90;;;;;;5051630;28;20294;-87
2023/01/05 05:21:18;;;;;;;8.07;1.73;;;21.70;99.90;;;;;;5047973;28;20238;-87
2023/01/05 05:23:50;;;;;;;10.82;2.30;;;21.80;99.90;;;;;;5054211;28;20288;-87
2023/01/05 05:26:21;;;;;;;8.55;2.30;;;21.90;99.90;;;;;;5051646;28;20610;-88
2023/01/05 05:28:52;;;;;;;11.27;2.38;;;21.80;99.90;;;;;;5050825;28;20203;-87
2023/01/05 05:31:27;;;;;;;11.45;2.28;;;21.80;99.90;;;;;;5050226;28;20561;-86
2023/01/05 05:33:58;;;;;;;9.27;2.08;;;21.70;99.90;;;;;;5039599;28;20223;-86
2023/01/05 05:36:29;;;;;;;12.27;2.40;;;21.60;99.90;;;;;;5051889;28;20224;-87
2023/01/05 05:39:03;;;;;;;13.00;2.50;;;21.50;99.90;;;;;;5051800;28;20200;-87
2023/01/05 05:41:34;;;;;;;12.65;2.97;;;21.30;99.90;;;;;;5047206;28;20648;-87
2023/01/05 05:44:05;;;;;;;12.55;2.67;;;21.20;99.90;;;;;;5052531;28;20206;-86
2023/01/05 05:46:35;;;;;;;17.38;3.13;;;21.20;99.90;;;;;;5051890;28;20568;-88
2023/01/05 05:49:07;;;;;;;12.77;2.67;;;21.10;99.90;;;;;;5065107;28;20591;-88
2023/01/05 05:51:38;;;;;;;12.57;2.70;;;21.10;99.90;;;;;;5055348;28;20196;-87
2023/01/05 05:54:11;;;;;;;14.57;2.67;;;21.10;99.90;;;;;;5061104;28;20247;-87
2023/01/05 05:56:42;;;;;;;10.13;2.45;;;21.00;99.90;;;;;;5062968;28;20264;-87
2023/01/05 05:59:13;;;;;;;12.98;2.33;;;21.00;99.90;;;;;;5063980;28;20201;-86
2023/01/05 06:01:46;;;;;;;13.73;2.95;;;20.90;99.90;;;;;;5058440;28;20196;-86
2023/01/05 06:04:17;;;;;;;14.73;2.63;;;20.80;99.90;;;;;;5052952;28;20201;-87
2023/01/05 06:06:48;;;;;;;12.68;2.60;;;20.80;99.90;;;;;;5054471;28;20299;-85
2023/01/05 06:09:24;;;;;;;13.07;3.10;;;20.80;99.90;;;;;;5070102;28;20203;-86
2023/01/05 06:11:55;;;;;;;13.75;2.72;;;20.80;99.90;;;;;;5064879;28;20196;-86
2023/01/05 06:14:25;;;;;;;11.50;2.60;;;20.70;99.90;;;;;;5050175;28;20228;-87
2023/01/05 06:16:56;;;;;;;12.85;2.78;;;20.50;99.90;;;;;;5049402;28;20295;-85
2023/01/05 06:19:27;;;;;;;11.98;2.10;;;20.40;99.90;;;;;;5047576;28;20227;-86
2023/01/05 06:21:58;;;;;;;11.13;1.90;;;20.30;99.90;;;;;;5048147;28;20192;-86
2023/01/05 06:24:31;;;;;;;8.40;1.98;;;20.10;99.90;;;;;;5049503;28;20288;-86
2023/01/05 06:27:02;;;;;;;14.82;2.78;;;19.90;99.90;;;;;;5052754;28;20643;-86
2023/01/05 06:29:32;;;;;;;10.48;2.08;;;19.70;99.90;;;;;;5050066;28;20283;-86
2023/01/05 06:32:04;;;;;;;11.98;2.00;;;19.60;99.90;;;;;;5050093;28;20227;-84
2023/01/05 06:34:36;;;;;;;10.52;2.00;;;19.60;99.90;;;;;;5048164;28;20225;-84
2023/01/05 06:37:07;;;;;;;8.00;1.67;;;19.50;99.90;;;;;;5038500;28;20220;-84
2023/01/05 06:39:40;;;;;;;13.65;3.38;;;19.50;99.90;;;;;;5050004;28;20200;-84
2023/01/05 06:42:11;;;;;;;11.38;2.50;;;19.60;99.90;;;;;;5057621;28;20226;-85
2023/01/05 06:44:44;;;;;;;13.50;2.60;;;19.60;99.90;;;;;;5038487;28;20209;-85
2023/01/05 06:47:15;;;;;;;11.48;2.50;;;19.70;99.90;;;;;;5035130;28;20193;-85
2023/01/05 06:49:46;;;;;;;10.30;2.40;;;19.80;99.90;;;;;;5053744;28;20226;-85
2023/01/05 06:52:17;;;;;;;8.70;2.13;;;19.90;99.90;;;;;;5052472;28;20283;-85
2023/01/05 06:54:50;;;;;;;10.27;2.38;;;19.90;99.90;;;;;;5055324;28;20678;-85
2023/01/05 06:57:20;;;;;;;8.88;1.90;;;20.00;99.90;;;;;;5053440;28;20200;-84
2023/01/05 06:59:51;;;;;;;12.20;2.58;;;20.10;99.90;;;;;;5060774;28;20246;-85
2023/01/05 07:02:22;;;;;;;9.35;1.95;;;20.20;99.90;;;;;;5075464;28;20264;-86
2023/01/05 07:04:53;;;;;;;9.75;2.90;;;20.20;99.90;;;;;;5056584;28;20979;-85
2023/01/05 07:07:23;;;;;;;10.25;2.20;;;20.10;99.90;;;;;;5055673;28;20677;-84
2023/01/05 07:09:57;;;;;;;8.10;1.70;;;20.00;99.90;;;;;;5055503;28;20874;-85
2023/01/05 07:12:28;;;;;;;9.02;1.88;;;20.10;99.90;;;;;;5055214;28;20285;-86
2023/01/05 07:15:02;;;;;;;11.05;2.03;;;20.20;99.90;;;;;;5055732;28;20284;-85
2023/01/05 07:17:33;;;;;;;11.27;2.10;;;20.40;99.90;;;;;;5053771;28;20656;-86
2023/01/05 07:20:04;;;;;;;11.07;3.05;;;20.30;99.90;;;;;;5014407;28;20229;-86
2023/01/05 07:22:35;;;;;;;11.23;4.55;;;20.30;99.90;;;;;;5012759;28;20204;-85
2023/01/05 07:25:10;;;;;;;11.25;2.15;;;20.20;99.90;;;;;;4994952;28;20209;-85
2023/01/05 07:27:41;;;;;;;8.20;1.88;;;20.30;99.90;;;;;;5010115;28;20284;-84
2023/01/05 07:30:13;;;;;;;10.40;2.13;;;20.30;99.90;;;;;;5014409;28;20237;-83
2023/01/05 07:32:43;;;;;;;9.73;2.60;;;20.30;99.90;;;;;;5015720;28;20261;-85
2023/01/05 07:35:14;;;;;;;11.50;4.43;;;20.40;99.90;;;;;;5017483;28;20269;-85
2023/01/05 07:37:45;;;;;;;9.15;2.35;;;20.40;99.90;;;;;;5017979;28;20202;-84
2023/01/05 07:40:18;;;;;;;10.15;2.50;;;20.40;99.90;;;;;;5017736;28;20285;-84
2023/01/05 07:42:53;;;;;;;10.15;1.95;;;20.40;99.90;;;;;;5004757;28;20230;-84
2023/01/05 07:45:24;;;;;;;8.95;2.00;;;20.50;99.90;;;;;;5014404;28;20203;-85
2023/01/05 07:47:55;;;;;;;9.43;1.80;;;20.50;99.90;;;;;;5014114;28;20290;-85
2023/01/05 07:50:27;;;;;;;8.18;2.45;;;20.50;99.90;;;;;;5004563;28;20203;-85
2023/01/05 07:52:59;;;;;;;7.22;1.60;;;20.50;99.90;;;;;;5013164;28;20268;-84
2023/01/05 07:55:32;;;;;;;8.90;2.20;;;20.40;99.90;;;;;;4997702;28;20669;-83
2023/01/05 07:58:03;;;;;;;7.70;1.75;;;20.40;99.90;;;;;;5002294;28;20657;-82
2023/01/05 08:00:35;;;;;;;9.20;1.92;;;20.40;99.90;;;;;;5017041;28;20186;-83
2023/01/05 08:03:06;;;;;;;8.00;2.25;;;20.30;99.90;;;;;;5015440;28;20202;-84
2023/01/05 08:05:37;;;;;;;7.68;2.00;;;20.40;99.90;;;;;;5016828;28;20284;-85
2023/01/05 08:08:08;;;;;;;8.63;1.77;;;20.40;99.90;;;;;;5025883;28;20205;-85
2023/01/05 08:10:41;;;;;;;7.53;1.77;;;20.40;99.90;;;;;;5015945;28;20240;-85
2023/01/05 08:16:00;;;;;;;8.02;2.05;;;20.40;99.90;;;;;;5015727;28;20205;-86
2023/01/05 08:18:32;;;;;;;7.50;1.85;;;20.50;99.90;;;;;;5035688;28;20236;-86
2023/01/05 08:21:04;;;;;;;12.10;2.13;;;20.50;99.90;;;;;;5050512;28;20275;-84
2023/01/05 08:23:37;;;;;;;11.18;2.53;;;20.30;99.90;;;;;;5052961;28;20193;-85
2023/01/05 08:26:13;;;;;;;8.25;2.05;;;20.20;99.90;;;;;;5057281;28;20222;-86
2023/01/05 08:28:45;;;;;;;7.93;1.75;;;20.20;99.90;;;;;;5060046;28;20203;-86
2023/01/05 08:31:18;;;;;;;9.63;1.98;;;20.30;99.90;;;;;;5053099;28;20203;-85
2023/01/05 08:33:49;;;;;;;9.93;2.25;;;20.20;99.90;;;;;;5042243;28;20311;-85
2023/01/05 08:36:22;;;;;;;9.65;2.40;;;20.20;99.90;;;;;;5046720;28;20632;-84
2023/01/05 08:38:55;;;;;;;11.20;2.03;;;20.20;99.90;;;;;;5051316;28;20201;-84
2023/01/05 08:41:31;;;;;;;8.95;2.80;;;20.20;99.90;;;;;;5059979;28;20258;-84
2023/01/05 08:44:05;;;;;;;9.05;1.95;;;20.20;99.90;;;;;;5061987;28;20291;-87
2023/01/05 08:46:37;;;;;;;10.85;1.90;;;20.20;99.90;;;;;;5058150;28;20231;-85
2023/01/05 08:49:10;;;;;;;7.95;1.85;;;20.20;99.90;;;;;;5062315;28;20235;-87
2023/01/05 08:51:41;;;;;;;12.25;2.25;;;20.20;99.90;;;;;;5064850;28;20193;-89
2023/01/05 08:54:12;;;;;;;9.60;2.40;;;20.20;99.90;;;;;;5059698;28;20307;-88
2023/01/05 08:56:47;;;;;;;11.50;3.92;;;20.10;99.90;;;;;;5058423;28;20322;-87
2023/01/05 08:59:18;;;;;;;15.50;4.18;;;20.10;99.90;;;;;;5059365;28;20200;-86
2023/01/05 09:01:48;;;;;;;9.02;2.33;;;20.10;99.90;;;;;;5051863;28;20189;-83
2023/01/05 09:04:21;;;;;;;16.98;3.35;;;20.00;99.90;;;;;;5042715;28;20656;-83
2023/01/05 09:06:52;;;;;;;18.25;4.55;;;20.10;99.90;;;;;;5056401;28;20197;-83
2023/01/05 09:09:25;;;;;;;13.95;3.53;;;20.10;99.90;;;;;;5058850;28;20261;-84
2023/01/05 09:12:00;;;;;;;15.00;3.63;;;20.10;99.90;;;;;;5065303;28;20197;-83
2023/01/05 09:14:30;;;;;;;7.97;2.00;;;20.10;99.90;;;;;;5057036;28;20246;-84
2023/01/05 09:17:02;;;;;;;9.95;2.15;;;20.10;99.90;;;;;;5056299;28;20218;-84
2023/01/05 09:19:32;;;;;;;7.70;2.10;;;20.10;99.90;;;;;;5055782;28;20228;-84
2023/01/05 09:22:03;;;;;;;9.32;2.30;;;20.10;99.90;;;;;;5054755;28;20275;-84
2023/01/05 09:24:34;;;;;;;9.38;2.45;;;20.10;99.90;;;;;;5072226;28;20227;-83
2023/01/05 09:27:07;;;;;;;7.60;1.95;;;20.00;99.90;;;;;;5074781;28;20264;-84
2023/01/05 09:29:39;;;;;;;11.32;2.17;;;20.10;99.90;;;;;;5050647;28;20200;-83
2023/01/05 09:32:10;;;;;;;9.43;2.10;;;20.00;99.90;;;;;;5057552;28;20192;-84
2023/01/05 09:34:41;;;;;;;10.05;2.10;;;20.00;99.90;;;;;;5055757;28;20683;-84
2023/01/05 09:37:12;;;;;;;17.48;4.50;;;20.00;99.90;;;;;;5054020;28;20196;-85
2023/01/05 09:39:43;;;;;;;8.75;2.55;;;20.00;99.90;;;;;;5054823;28;20203;-84
2023/01/05 09:42:20;;;;;;;9.43;2.35;;;20.00;99.90;;;;;;5053954;28;20227;-85
2023/01/05 09:44:53;;;;;;;15.50;2.30;;;20.00;99.90;;;;;;5036906;28;20284;-84
2023/01/05 09:47:31;;;;;;;8.85;2.28;;;19.90;99.90;;;;;;5047933;28;20228;-85
2023/01/05 09:50:03;;;;;;;13.60;2.15;;;19.90;99.90;;;;;;5068753;28;20200;-87
2023/01/05 09:52:35;;;;;;;8.15;2.65;;;20.00;99.90;;;;;;5062039;28;20280;-86
2023/01/05 09:55:12;;;;;;;9.13;2.05;;;20.00;99.90;;;;;;5053311;28;20605;-84
2023/01/05 09:57:49;;;;;;;10.13;3.03;;;20.00;99.90;;;;;;5054603;28;20205;-84
2023/01/05 10:00:21;;;;;;;12.93;2.30;;;19.90;99.90;;;;;;5054902;28;20234;-86
2023/01/05 10:02:57;;;;;;;15.32;2.95;;;19.90;99.90;;;;;;5054712;28;20203;-85
2023/01/05 10:05:29;;;;;;;16.05;2.90;;;19.90;99.90;;;;;;5053511;28;20620;-85
2023/01/05 10:08:06;;;;;;;11.68;2.22;;;19.90;99.90;;;;;;5067424;28;20192;-85
2023/01/05 10:13:01;;;;;;;12.45;3.10;;;19.80;99.90;;;;;;5051743;28;20212;-83
2023/01/05 10:13:43;;;;;;;13.23;3.25;;;19.90;99.90;;;;;;5055179;28;20203;-85
2023/01/05 10:16:18;;;;;;;10.15;2.45;;;19.90;99.90;;;;;;5067162;28;20195;-85
2023/01/05 10:18:50;;;;;;;8.63;2.45;;;19.90;99.90;;;;;;5055535;28;20351;-85
2023/01/05 10:21:32;;;;;;;12.38;2.30;;;20.00;99.90;;;;;;5063403;28;20674;-85
2023/01/05 10:24:21;;;;;;;8.98;2.08;;;19.90;99.90;;;;;;5061839;28;20200;-86
2023/01/05 10:26:59;;;;;;;7.85;2.30;;;19.90;99.90;;;;;;5059650;28;20204;-86
2023/01/05 10:29:41;;;;;;;8.30;1.90;;;19.90;99.90;;;;;;5063293;28;20231;-84
2023/01/05 10:32:24;;;;;;;9.57;1.85;;;19.90;99.90;;;;;;5061455;28;20200;-86
2023/01/05 10:34:59;;;;;;;6.55;1.80;;;19.90;99.90;;;;;;5060432;28;20251;-85
2023/01/05 10:38:04;;;;;;;7.30;1.83;;;19.90;99.90;;;;;;5060948;28;20192;-85
2023/01/05 10:40:51;;;;;;;9.32;1.95;;;19.90;99.90;;;;;;5034797;28;20200;-84
2023/01/05 10:43:43;;;;;;;7.68;1.60;;;19.90;99.90;;;;;;5062058;28;20196;-86
2023/01/05 10:46:17;;;;;;;8.48;1.88;;;19.90;99.90;;;;;;5062996;28;20663;-85
2023/01/05 10:48:48;;;;;;;10.10;2.28;;;20.00;99.90;;;;;;5059022;28;20275;-86
2023/01/05 10:51:20;;;;;;;6.88;1.80;;;19.90;99.90;;;;;;5063442;28;20279;-84
2023/01/05 10:53:51;;;;;;;11.40;1.88;;;19.80;99.90;;;;;;5061299;28;20279;-85
2023/01/05 10:56:29;;;;;;;12.00;1.80;;;19.80;99.90;;;;;;5042256;28;20274;-84
2023/01/05 10:59:14;;;;;;;10.23;1.90;;;19.80;99.90;;;;;;5043151;28;20201;-85
2023/01/05 11:01:51;;;;;;;9.00;1.75;;;19.70;99.90;;;;;;5041255;28;20223;-84
2023/01/05 11:04:23;;;;;;;10.65;2.05;;;19.80;99.90;;;;;;5053602;28;20371;-85
2023/01/05 11:07:03;;;;;;;13.60;2.10;;;19.70;99.90;;;;;;5062160;28;20571;-85
2023/01/05 11:09:40;;;;;;;10.40;2.30;;;19.60;99.90;;;;;;5060115;28;20196;-85
2023/01/05 11:12:20;;;;;;;14.82;2.20;;;19.60;99.90;;;;;;5058753;28;20286;-85
2023/01/05 11:14:54;;;;;;;9.00;1.80;;;19.60;99.90;;;;;;5068901;28;20219;-84
2023/01/05 11:17:29;;;;;;;12.90;2.30;;;19.70;99.90;;;;;;5072259;28;20230;-84
2023/01/05 11:20:01;;;;;;;12.23;1.85;;;19.60;99.90;;;;;;5067714;28;20243;-84
2023/01/05 11:22:35;;;;;;;11.80;2.03;;;19.60;99.90;;;;;;5063917;28;20660;-84
2023/01/05 11:25:27;;;;;;;11.05;2.05;;;19.60;99.90;;;;;;5057238;28;20203;-84
2023/01/05 11:28:16;;;;;;;8.85;1.58;;;19.60;99.90;;;;;;5055362;28;20358;-85
2023/01/05 11:31:01;;;;;;;9.05;1.67;;;19.50;99.90;;;;;;5054995;28;20200;-83
2023/01/05 11:33:39;;;;;;;10.18;2.10;;;19.60;99.90;;;;;;5053515;28;20208;-84
2023/01/05 11:36:15;;;;;;;7.55;1.40;;;19.60;99.90;;;;;;5035679;28;20216;-85
2023/01/05 11:38:46;;;;;;;11.80;2.22;;;19.60;99.90;;;;;;5042498;28;20283;-85
2023/01/05 11:41:17;;;;;;;13.23;2.08;;;19.60;99.90;;;;;;5047088;28;20198;-84
2023/01/05 11:43:50;;;;;;;11.63;1.83;;;19.50;99.90;;;;;;5062651;28;20189;-84
2023/01/05 11:46:22;;;;;;;12.30;1.80;;;19.50;99.90;;;;;;5061880;28;20205;-84
2023/01/05 11:48:59;;;;;;;7.72;2.00;;;19.50;99.90;;;;;;5058408;28;20227;-84
2023/01/05 11:51:37;;;;;;;10.70;1.65;;;19.40;99.90;;;;;;5065672;28;20204;-84
2023/01/05 11:54:28;;;;;;;12.75;1.80;;;19.40;99.90;;;;;;5052708;28;20275;-83
2023/01/05 11:57:16;;;;;;;11.43;2.10;;;19.50;99.90;;;;;;5058040;28;20268;-84
2023/01/05 11:59:49;;;;;;;12.05;2.22;;;19.50;99.90;;;;;;5055120;28;20204;-83
2023/01/05 12:02:51;;;;;;;14.18;1.95;;;19.40;99.90;;;;;;5041986;28;20282;-84
2023/01/05 12:05:31;;;;;;;9.80;1.58;;;19.40;99.90;;;;;;5055073;28;20259;-83
2023/01/05 12:08:08;;;;;;;8.15;1.90;;;19.30;99.90;;;;;;5052791;28;20689;-84
2023/01/05 12:11:01;;;;;;;10.77;1.80;;;19.20;99.90;;;;;;5052182;28;20216;-85
2023/01/05 12:14:05;;;;;;;8.43;1.60;;;19.30;99.90;;;;;;5045638;28;20203;-86
2023/01/05 12:16:48;;;;;;;9.13;1.85;;;19.30;99.90;;;;;;5046459;28;20228;-84
2023/01/05 12:19:51;;;;;;;8.18;1.90;;;19.30;99.90;;;;;;5050404;28;20229;-85
2023/01/05 12:22:45;;;;;;;11.32;1.65;;;19.20;99.90;;;;;;5050584;28;20663;-85
2023/01/05 12:25:30;;;;;;;10.02;1.80;;;19.00;99.90;;;;;;5051176;28;20201;-84
2023/01/05 12:28:24;;;;;;;8.27;1.73;;;18.90;99.90;;;;;;5054384;28;20203;-85
2023/01/05 12:31:10;;;;;;;8.02;2.00;;;18.90;99.90;;;;;;5053813;28;20264;-85
2023/01/05 12:34:07;;;;;;;9.38;1.60;;;19.00;99.90;;;;;;5050556;28;20368;-83
2023/01/05 12:37:03;;;;;;;7.32;1.67;;;19.00;99.90;;;;;;5052283;28;20260;-85
2023/01/05 12:40:02;;;;;;;7.03;1.60;;;19.00;99.90;;;;;;5053243;28;20225;-84
2023/01/05 12:42:52;;;;;;;8.63;1.75;;;19.10;99.90;;;;;;5055027;28;20651;-84
2023/01/05 12:45:43;;;;;;;8.82;1.75;;;19.10;99.90;;;;;;5050463;28;20569;-85
2023/01/05 12:48:18;;;;;;;7.55;1.80;;;19.10;99.90;;;;;;5048989;28;20284;-85
2023/01/05 12:50:53;;;;;;;6.60;1.50;;;19.00;99.90;;;;;;5063312;28;20279;-85
2023/01/05 12:53:47;;;;;;;4.70;1.17;;;19.00;99.90;;;;;;5051885;28;20218;-84
2023/01/05 12:56:28;;;;;;;8.38;1.42;;;19.10;99.90;;;;;;5051659;28;20220;-84
2023/01/05 12:59:12;;;;;;;6.85;1.38;;;19.00;99.90;;;;;;5031467;28;20204;-84
2023/01/05 13:01:49;;;;;;;15.32;2.03;;;19.00;99.90;;;;;;5048073;28;20247;-84
2023/01/05 13:04:41;;;;;;;9.07;1.70;;;18.80;99.90;;;;;;5050463;28;20202;-84
2023/01/05 13:07:21;;;;;;;12.00;1.92;;;18.70;99.90;;;;;;5032300;28;20197;-84
2023/01/05 13:09:59;;;;;;;9.57;1.65;;;18.80;99.90;;;;;;5033919;28;20320;-83
2023/01/05 13:12:33;;;;;;;8.80;2.00;;;18.80;99.90;;;;;;5048882;28;20204;-84
2023/01/05 13:15:20;;;;;;;6.63;1.60;;;18.90;99.90;;;;;;5050631;28;20216;-84
2023/01/05 13:17:53;;;;;;;12.07;2.40;;;18.90;99.90;;;;;;5050698;28;20608;-84
2023/01/05 13:20:32;;;;;;;7.25;1.63;;;18.90;99.90;;;;;;5052564;28;20296;-83
2023/01/05 13:23:06;;;;;;;12.75;1.90;;;18.80;99.90;;;;;;5041417;28;20196;-85
2023/01/05 13:25:47;;;;;;;8.07;1.63;;;18.80;99.90;;;;;;5050937;28;20231;-84
2023/01/05 13:28:29;;;;;;;6.85;1.83;;;18.80;99.90;;;;;;5035927;28;20205;-84
2023/01/05 13:31:29;;;;;;;9.68;1.95;;;18.90;99.90;;;;;;5064018;28;20204;-84
2023/01/05 13:34:29;;;;;;;5.57;1.67;;;18.80;99.90;;;;;;5050690;28;20204;-85
2023/01/05 13:37:46;;;;;;;8.57;2.17;;;18.80;99.90;;;;;;5049555;28;20298;-84
2023/01/05 13:40:41;;;;;;;11.70;1.70;;;18.80;99.90;;;;;;4988868;28;20569;-84
2023/01/05 13:43:36;;;;;;;9.27;1.80;;;18.70;99.90;;;;;;5043431;28;20197;-84
2023/01/05 13:46:38;;;;;;;7.78;2.00;;;18.60;99.90;;;;;;5028996;28;20283;-85
2023/01/05 13:49:35;;;;;;;6.95;1.83;;;18.50;99.90;;;;;;5011442;28;20206;-85
2023/01/05 13:52:17;;;;;;;9.57;1.80;;;18.60;99.90;;;;;;5047994;28;20311;-85
2023/01/05 13:54:51;;;;;;;9.65;1.90;;;18.50;99.90;;;;;;5049682;28;20228;-85
2023/01/05 13:57:25;;;;;;;7.78;1.80;;;18.40;99.90;;;;;;5040158;28;20228;-86